sensor_id;sensor_type;location;lat;lon;timestamp;temperature;humidity
66928;DHT22;59882;45.624;11.698;2022-08-23T00:01:30;25.40;56.50
66928;DHT22;59882;45.624;11.698;2022-08-23T00:04:00;25.40;56.50
66928;DHT22;59882;45.624;11.698;2022-08-23T00:06:27;25.30;56.60
66928;DHT22;59882;45.624;11.698;2022-08-23T00:08:53;25.30;56.60
66928;DHT22;59882;45.624;11.698;2022-08-23T00:11:44;25.30;57.10
66928;DHT22;59882;45.624;11.698;2022-08-23T00:14:26;25.30;57.30
66928;DHT22;59882;45.624;11.698;2022-08-23T00:16:53;25.40;56.50
66928;DHT22;59882;45.624;11.698;2022-08-23T00:19:20;25.40;56.90
66928;DHT22;59882;45.624;11.698;2022-08-23T00:21:47;25.40;57.00
66928;DHT22;59882;45.624;11.698;2022-08-23T00:24:14;25.40;56.60
66928;DHT22;59882;45.624;11.698;2022-08-23T00:29:31;25.40;56.70
66928;DHT22;59882;45.624;11.698;2022-08-23T00:31:57;25.40;56.50
66928;DHT22;59882;45.624;11.698;2022-08-23T00:34:23;25.50;57.10
66928;DHT22;59882;45.624;11.698;2022-08-23T00:36:49;25.50;56.50
66928;DHT22;59882;45.624;11.698;2022-08-23T00:39:16;25.40;57.00
66928;DHT22;59882;45.624;11.698;2022-08-23T00:41:43;25.40;56.80
66928;DHT22;59882;45.624;11.698;2022-08-23T00:44:16;25.40;56.70
66928;DHT22;59882;45.624;11.698;2022-08-23T00:47:02;25.40;57.10
66928;DHT22;59882;45.624;11.698;2022-08-23T00:49:51;25.40;57.50
66928;DHT22;59882;45.624;11.698;2022-08-23T00:52:37;25.40;57.00
66928;DHT22;59882;45.624;11.698;2022-08-23T00:55:04;25.40;57.50
66928;DHT22;59882;45.624;11.698;2022-08-23T00:57:31;25.30;56.90
66928;DHT22;59882;45.624;11.698;2022-08-23T00:59:58;25.30;56.90
66928;DHT22;59882;45.624;11.698;2022-08-23T01:02:24;25.30;57.10
66928;DHT22;59882;45.624;11.698;2022-08-23T01:04:55;25.20;57.00
66928;DHT22;59882;45.624;11.698;2022-08-23T01:07:49;25.20;57.30
66928;DHT22;59882;45.624;11.698;2022-08-23T01:11:02;25.00;57.40
66928;DHT22;59882;45.624;11.698;2022-08-23T01:13:20;24.90;58.00
66928;DHT22;59882;45.624;11.698;2022-08-23T01:15:56;24.80;58.10
66928;DHT22;59882;45.624;11.698;2022-08-23T01:18:26;24.70;57.60
66928;DHT22;59882;45.624;11.698;2022-08-23T01:20:57;24.70;58.10
66928;DHT22;59882;45.624;11.698;2022-08-23T01:26:00;24.50;58.40
66928;DHT22;59882;45.624;11.698;2022-08-23T01:28:25;24.30;58.90
66928;DHT22;59882;45.624;11.698;2022-08-23T01:30:51;24.30;59.10
66928;DHT22;59882;45.624;11.698;2022-08-23T01:33:17;24.20;59.60
66928;DHT22;59882;45.624;11.698;2022-08-23T01:35:50;24.10;59.40
66928;DHT22;59882;45.624;11.698;2022-08-23T01:38:18;24.00;59.40
66928;DHT22;59882;45.624;11.698;2022-08-23T01:40:44;24.00;59.90
66928;DHT22;59882;45.624;11.698;2022-08-23T01:43:10;24.00;59.20
66928;DHT22;59882;45.624;11.698;2022-08-23T01:45:38;24.00;59.20
66928;DHT22;59882;45.624;11.698;2022-08-23T01:48:04;24.00;59.40
66928;DHT22;59882;45.624;11.698;2022-08-23T01:50:30;23.90;59.30
66928;DHT22;59882;45.624;11.698;2022-08-23T01:52:57;23.90;59.90
66928;DHT22;59882;45.624;11.698;2022-08-23T01:55:23;23.80;59.80
66928;DHT22;59882;45.624;11.698;2022-08-23T01:57:52;23.70;59.70
66928;DHT22;59882;45.624;11.698;2022-08-23T02:00:21;23.60;59.70
66928;DHT22;59882;45.624;11.698;2022-08-23T02:02:47;23.50;59.90
66928;DHT22;59882;45.624;11.698;2022-08-23T02:05:13;23.50;60.40
66928;DHT22;59882;45.624;11.698;2022-08-23T02:07:39;23.40;60.30
66928;DHT22;59882;45.624;11.698;2022-08-23T02:10:06;23.40;60.60
66928;DHT22;59882;45.624;11.698;2022-08-23T02:12:32;23.30;60.60
66928;DHT22;59882;45.624;11.698;2022-08-23T02:14:58;23.30;61.10
66928;DHT22;59882;45.624;11.698;2022-08-23T02:17:24;23.30;60.80
66928;DHT22;59882;45.624;11.698;2022-08-23T02:19:49;23.30;60.90
66928;DHT22;59882;45.624;11.698;2022-08-23T02:22:15;23.30;60.60
66928;DHT22;59882;45.624;11.698;2022-08-23T02:24:43;23.30;60.70
66928;DHT22;59882;45.624;11.698;2022-08-23T02:27:10;23.30;61.10
66928;DHT22;59882;45.624;11.698;2022-08-23T02:29:37;23.20;61.50
66928;DHT22;59882;45.624;11.698;2022-08-23T02:32:03;23.20;61.00
66928;DHT22;59882;45.624;11.698;2022-08-23T02:34:29;23.20;60.80
66928;DHT22;59882;45.624;11.698;2022-08-23T02:36:56;23.20;60.50
66928;DHT22;59882;45.624;11.698;2022-08-23T02:39:22;23.30;61.10
66928;DHT22;59882;45.624;11.698;2022-08-23T02:41:48;23.20;61.30
66928;DHT22;59882;45.624;11.698;2022-08-23T02:44:14;23.10;61.70
66928;DHT22;59882;45.624;11.698;2022-08-23T02:46:41;23.10;61.80
66928;DHT22;59882;45.624;11.698;2022-08-23T02:49:07;23.00;61.90
66928;DHT22;59882;45.624;11.698;2022-08-23T02:51:33;23.00;62.00
66928;DHT22;59882;45.624;11.698;2022-08-23T02:53:59;22.90;62.10
66928;DHT22;59882;45.624;11.698;2022-08-23T02:56:25;22.90;62.00
66928;DHT22;59882;45.624;11.698;2022-08-23T02:58:51;22.90;61.50
66928;DHT22;59882;45.624;11.698;2022-08-23T03:01:26;22.90;61.30
66928;DHT22;59882;45.624;11.698;2022-08-23T03:03:52;22.90;61.10
66928;DHT22;59882;45.624;11.698;2022-08-23T03:06:17;22.90;60.80
66928;DHT22;59882;45.624;11.698;2022-08-23T03:08:45;22.90;61.40
66928;DHT22;59882;45.624;11.698;2022-08-23T03:11:16;22.80;61.60
66928;DHT22;59882;45.624;11.698;2022-08-23T03:13:43;22.80;61.50
66928;DHT22;59882;45.624;11.698;2022-08-23T03:16:11;22.80;61.00
66928;DHT22;59882;45.624;11.698;2022-08-23T03:18:37;22.80;61.20
66928;DHT22;59882;45.624;11.698;2022-08-23T03:21:04;22.90;61.30
66928;DHT22;59882;45.624;11.698;2022-08-23T03:23:31;22.90;61.40
66928;DHT22;59882;45.624;11.698;2022-08-23T03:25:58;22.90;61.40
66928;DHT22;59882;45.624;11.698;2022-08-23T03:28:24;22.90;61.20
66928;DHT22;59882;45.624;11.698;2022-08-23T03:30:50;22.90;61.60
66928;DHT22;59882;45.624;11.698;2022-08-23T03:33:15;22.90;61.40
66928;DHT22;59882;45.624;11.698;2022-08-23T03:35:41;22.90;61.70
66928;DHT22;59882;45.624;11.698;2022-08-23T03:38:07;22.80;62.00
66928;DHT22;59882;45.624;11.698;2022-08-23T03:40:33;22.70;62.30
66928;DHT22;59882;45.624;11.698;2022-08-23T03:42:59;22.60;62.10
66928;DHT22;59882;45.624;11.698;2022-08-23T03:45:26;22.60;62.30
66928;DHT22;59882;45.624;11.698;2022-08-23T03:47:52;22.70;61.70
66928;DHT22;59882;45.624;11.698;2022-08-23T03:50:18;22.70;62.00
66928;DHT22;59882;45.624;11.698;2022-08-23T03:52:43;22.70;62.00
66928;DHT22;59882;45.624;11.698;2022-08-23T03:55:09;22.70;62.00
66928;DHT22;59882;45.624;11.698;2022-08-23T03:57:35;22.70;62.10
66928;DHT22;59882;45.624;11.698;2022-08-23T04:00:01;22.60;61.70
66928;DHT22;59882;45.624;11.698;2022-08-23T04:02:26;22.60;61.80
66928;DHT22;59882;45.624;11.698;2022-08-23T04:04:52;22.60;62.00
66928;DHT22;59882;45.624;11.698;2022-08-23T04:07:20;22.60;61.90
66928;DHT22;59882;45.624;11.698;2022-08-23T04:09:45;22.60;62.20
66928;DHT22;59882;45.624;11.698;2022-08-23T04:12:12;22.50;62.10
66928;DHT22;59882;45.624;11.698;2022-08-23T04:14:37;22.40;62.20
66928;DHT22;59882;45.624;11.698;2022-08-23T04:17:03;22.40;62.20
66928;DHT22;59882;45.624;11.698;2022-08-23T04:19:29;22.40;61.90
66928;DHT22;59882;45.624;11.698;2022-08-23T04:21:56;22.30;61.80
66928;DHT22;59882;45.624;11.698;2022-08-23T04:24:21;22.30;61.60
66928;DHT22;59882;45.624;11.698;2022-08-23T04:26:47;22.30;61.30
66928;DHT22;59882;45.624;11.698;2022-08-23T04:29:14;22.30;61.20
66928;DHT22;59882;45.624;11.698;2022-08-23T04:31:42;22.30;61.20
66928;DHT22;59882;45.624;11.698;2022-08-23T04:34:08;22.30;61.40
66928;DHT22;59882;45.624;11.698;2022-08-23T04:36:37;22.30;61.50
66928;DHT22;59882;45.624;11.698;2022-08-23T04:39:03;22.30;61.60
66928;DHT22;59882;45.624;11.698;2022-08-23T04:41:29;22.30;61.40
66928;DHT22;59882;45.624;11.698;2022-08-23T04:44:15;22.30;61.10
66928;DHT22;59882;45.624;11.698;2022-08-23T04:46:41;22.30;61.20
66928;DHT22;59882;45.624;11.698;2022-08-23T04:49:09;22.30;61.30
66928;DHT22;59882;45.624;11.698;2022-08-23T04:51:35;22.30;61.50
66928;DHT22;59882;45.624;11.698;2022-08-23T04:54:01;22.30;61.20
66928;DHT22;59882;45.624;11.698;2022-08-23T04:56:26;22.30;61.20
66928;DHT22;59882;45.624;11.698;2022-08-23T04:58:53;22.40;61.00
66928;DHT22;59882;45.624;11.698;2022-08-23T05:01:19;22.40;60.90
66928;DHT22;59882;45.624;11.698;2022-08-23T05:03:45;22.40;60.90
66928;DHT22;59882;45.624;11.698;2022-08-23T05:06:10;22.40;60.60
66928;DHT22;59882;45.624;11.698;2022-08-23T05:08:37;22.50;60.50
66928;DHT22;59882;45.624;11.698;2022-08-23T05:11:05;22.50;60.90
66928;DHT22;59882;45.624;11.698;2022-08-23T05:13:32;22.50;60.90
66928;DHT22;59882;45.624;11.698;2022-08-23T05:15:58;22.50;60.60
66928;DHT22;59882;45.624;11.698;2022-08-23T05:18:25;22.50;61.20
66928;DHT22;59882;45.624;11.698;2022-08-23T05:20:51;22.40;61.30
66928;DHT22;59882;45.624;11.698;2022-08-23T05:23:17;22.40;60.90
66928;DHT22;59882;45.624;11.698;2022-08-23T05:25:43;22.40;61.20
66928;DHT22;59882;45.624;11.698;2022-08-23T05:28:32;22.40;61.20
66928;DHT22;59882;45.624;11.698;2022-08-23T05:31:09;22.40;61.30
66928;DHT22;59882;45.624;11.698;2022-08-23T05:33:36;22.20;61.80
66928;DHT22;59882;45.624;11.698;2022-08-23T05:36:03;22.20;61.60
66928;DHT22;59882;45.624;11.698;2022-08-23T05:38:30;22.10;62.00
66928;DHT22;59882;45.624;11.698;2022-08-23T05:40:57;22.00;62.20
66928;DHT22;59882;45.624;11.698;2022-08-23T05:43:24;22.00;62.60
66928;DHT22;59882;45.624;11.698;2022-08-23T05:46:25;22.00;62.90
66928;DHT22;59882;45.624;11.698;2022-08-23T05:48:51;21.90;63.00
66928;DHT22;59882;45.624;11.698;2022-08-23T05:51:35;21.90;62.60
66928;DHT22;59882;45.624;11.698;2022-08-23T05:54:06;21.90;63.00
66928;DHT22;59882;45.624;11.698;2022-08-23T05:56:37;21.90;62.40
66928;DHT22;59882;45.624;11.698;2022-08-23T05:59:05;22.10;63.20
66928;DHT22;59882;45.624;11.698;2022-08-23T06:01:32;22.10;63.50
66928;DHT22;59882;45.624;11.698;2022-08-23T06:04:00;22.10;63.50
66928;DHT22;59882;45.624;11.698;2022-08-23T06:06:26;22.10;63.00
66928;DHT22;59882;45.624;11.698;2022-08-23T06:08:52;22.10;62.00
66928;DHT22;59882;45.624;11.698;2022-08-23T06:11:22;22.10;61.60
66928;DHT22;59882;45.624;11.698;2022-08-23T06:13:53;22.20;61.20
66928;DHT22;59882;45.624;11.698;2022-08-23T06:16:24;22.20;61.00
66928;DHT22;59882;45.624;11.698;2022-08-23T06:18:50;22.30;61.30
66928;DHT22;59882;45.624;11.698;2022-08-23T06:21:17;22.40;61.20
66928;DHT22;59882;45.624;11.698;2022-08-23T06:23:44;22.40;61.50
66928;DHT22;59882;45.624;11.698;2022-08-23T06:26:44;22.40;61.20
66928;DHT22;59882;45.624;11.698;2022-08-23T06:29:13;22.50;61.40
66928;DHT22;59882;45.624;11.698;2022-08-23T06:31:41;22.60;61.70
66928;DHT22;59882;45.624;11.698;2022-08-23T06:36:51;22.60;61.80
66928;DHT22;59882;45.624;11.698;2022-08-23T06:39:19;22.60;61.50
66928;DHT22;59882;45.624;11.698;2022-08-23T06:41:46;22.70;61.90
66928;DHT22;59882;45.624;11.698;2022-08-23T06:44:16;22.70;61.80
66928;DHT22;59882;45.624;11.698;2022-08-23T06:46:42;22.80;61.50
66928;DHT22;59882;45.624;11.698;2022-08-23T06:49:08;22.80;60.20
66928;DHT22;59882;45.624;11.698;2022-08-23T06:51:35;22.90;60.40
66928;DHT22;59882;45.624;11.698;2022-08-23T06:54:07;23.00;60.40
66928;DHT22;59882;45.624;11.698;2022-08-23T06:56:34;23.10;60.10
66928;DHT22;59882;45.624;11.698;2022-08-23T06:59:00;23.20;59.90
66928;DHT22;59882;45.624;11.698;2022-08-23T07:01:33;23.20;59.10
66928;DHT22;59882;45.624;11.698;2022-08-23T07:04:02;23.20;58.50
66928;DHT22;59882;45.624;11.698;2022-08-23T07:06:29;23.30;58.30
66928;DHT22;59882;45.624;11.698;2022-08-23T07:08:55;23.30;58.60
66928;DHT22;59882;45.624;11.698;2022-08-23T07:11:22;23.40;58.70
66928;DHT22;59882;45.624;11.698;2022-08-23T07:13:48;23.40;58.20
66928;DHT22;59882;45.624;11.698;2022-08-23T07:16:14;23.50;58.30
66928;DHT22;59882;45.624;11.698;2022-08-23T07:18:43;23.50;58.40
66928;DHT22;59882;45.624;11.698;2022-08-23T07:21:10;23.60;58.80
66928;DHT22;59882;45.624;11.698;2022-08-23T07:23:37;23.70;58.60
66928;DHT22;59882;45.624;11.698;2022-08-23T07:26:07;23.80;58.40
66928;DHT22;59882;45.624;11.698;2022-08-23T07:28:33;23.80;58.30
66928;DHT22;59882;45.624;11.698;2022-08-23T07:31:22;23.90;58.50
66928;DHT22;59882;45.624;11.698;2022-08-23T07:33:48;23.90;58.40
66928;DHT22;59882;45.624;11.698;2022-08-23T07:36:17;24.10;58.20
66928;DHT22;59882;45.624;11.698;2022-08-23T07:38:44;24.10;57.40
66928;DHT22;59882;45.624;11.698;2022-08-23T07:41:11;24.20;57.40
66928;DHT22;59882;45.624;11.698;2022-08-23T07:43:37;24.20;57.00
66928;DHT22;59882;45.624;11.698;2022-08-23T07:46:04;24.30;57.00
66928;DHT22;59882;45.624;11.698;2022-08-23T07:48:30;24.40;56.50
66928;DHT22;59882;45.624;11.698;2022-08-23T07:51:01;24.40;56.30
66928;DHT22;59882;45.624;11.698;2022-08-23T07:53:27;24.50;55.90
66928;DHT22;59882;45.624;11.698;2022-08-23T07:55:53;24.60;55.80
66928;DHT22;59882;45.624;11.698;2022-08-23T07:58:22;24.60;55.60
66928;DHT22;59882;45.624;11.698;2022-08-23T08:00:49;24.70;55.40
66928;DHT22;59882;45.624;11.698;2022-08-23T08:03:17;24.70;55.00
66928;DHT22;59882;45.624;11.698;2022-08-23T08:05:43;24.80;55.00
66928;DHT22;59882;45.624;11.698;2022-08-23T08:08:09;24.80;54.70
66928;DHT22;59882;45.624;11.698;2022-08-23T08:10:40;24.90;54.40
66928;DHT22;59882;45.624;11.698;2022-08-23T08:13:08;24.90;54.10
66928;DHT22;59882;45.624;11.698;2022-08-23T08:15:34;25.00;53.90
66928;DHT22;59882;45.624;11.698;2022-08-23T08:18:00;25.10;52.80
66928;DHT22;59882;45.624;11.698;2022-08-23T08:20:26;25.10;53.00
66928;DHT22;59882;45.624;11.698;2022-08-23T08:22:53;25.20;52.80
66928;DHT22;59882;45.624;11.698;2022-08-23T08:25:19;25.20;52.80
66928;DHT22;59882;45.624;11.698;2022-08-23T08:27:45;25.20;52.30
66928;DHT22;59882;45.624;11.698;2022-08-23T08:30:11;25.30;50.60
66928;DHT22;59882;45.624;11.698;2022-08-23T08:32:37;25.30;50.60
66928;DHT22;59882;45.624;11.698;2022-08-23T08:35:04;25.40;50.00
66928;DHT22;59882;45.624;11.698;2022-08-23T08:37:30;25.40;49.00
66928;DHT22;59882;45.624;11.698;2022-08-23T08:39:57;25.40;49.50
66928;DHT22;59882;45.624;11.698;2022-08-23T08:45:25;25.50;49.80
66928;DHT22;59882;45.624;11.698;2022-08-23T08:48:09;25.50;48.80
66928;DHT22;59882;45.624;11.698;2022-08-23T08:50:52;25.60;48.90
66928;DHT22;59882;45.624;11.698;2022-08-23T08:53:27;25.60;49.30
66928;DHT22;59882;45.624;11.698;2022-08-23T08:55:57;25.70;50.10
66928;DHT22;59882;45.624;11.698;2022-08-23T08:58:29;25.70;49.30
66928;DHT22;59882;45.624;11.698;2022-08-23T09:00:56;25.80;49.70
66928;DHT22;59882;45.624;11.698;2022-08-23T09:03:23;25.80;49.60
66928;DHT22;59882;45.624;11.698;2022-08-23T09:06:22;25.90;50.00
66928;DHT22;59882;45.624;11.698;2022-08-23T09:09:15;25.90;50.10
66928;DHT22;59882;45.624;11.698;2022-08-23T09:17:05;26.00;50.30
66928;DHT22;59882;45.624;11.698;2022-08-23T09:19:35;26.00;50.30
66928;DHT22;59882;45.624;11.698;2022-08-23T09:22:11;26.10;50.60
66928;DHT22;59882;45.624;11.698;2022-08-23T09:24:41;26.10;50.60
66928;DHT22;59882;45.624;11.698;2022-08-23T09:27:09;26.20;50.40
66928;DHT22;59882;45.624;11.698;2022-08-23T09:29:38;26.30;50.40
66928;DHT22;59882;45.624;11.698;2022-08-23T09:32:26;26.30;50.10
66928;DHT22;59882;45.624;11.698;2022-08-23T09:35:04;26.30;49.90
66928;DHT22;59882;45.624;11.698;2022-08-23T09:37:29;26.40;50.00
66928;DHT22;59882;45.624;11.698;2022-08-23T09:40:25;26.40;49.90
66928;DHT22;59882;45.624;11.698;2022-08-23T09:43:23;26.40;49.70
66928;DHT22;59882;45.624;11.698;2022-08-23T09:48:40;26.40;49.90
66928;DHT22;59882;45.624;11.698;2022-08-23T09:53:39;26.50;49.00
66928;DHT22;59882;45.624;11.698;2022-08-23T09:56:22;26.60;49.00
66928;DHT22;59882;45.624;11.698;2022-08-23T09:58:49;26.60;49.50
66928;DHT22;59882;45.624;11.698;2022-08-23T10:01:22;26.70;49.40
66928;DHT22;59882;45.624;11.698;2022-08-23T10:04:10;26.80;48.60
66928;DHT22;59882;45.624;11.698;2022-08-23T10:06:37;26.90;47.60
66928;DHT22;59882;45.624;11.698;2022-08-23T10:09:06;26.90;48.20
66928;DHT22;59882;45.624;11.698;2022-08-23T10:11:42;26.90;48.20
66928;DHT22;59882;45.624;11.698;2022-08-23T10:14:17;26.90;47.70
66928;DHT22;59882;45.624;11.698;2022-08-23T10:19:42;27.00;47.40
66928;DHT22;59882;45.624;11.698;2022-08-23T10:22:24;27.10;47.70
66928;DHT22;59882;45.624;11.698;2022-08-23T10:25:08;27.20;48.90
66928;DHT22;59882;45.624;11.698;2022-08-23T10:30:51;27.40;48.40
66928;DHT22;59882;45.624;11.698;2022-08-23T10:33:28;27.40;47.80
66928;DHT22;59882;45.624;11.698;2022-08-23T10:46:19;28.00;45.30
66928;DHT22;59882;45.624;11.698;2022-08-23T10:48:53;28.00;45.90
66928;DHT22;59882;45.624;11.698;2022-08-23T10:51:42;28.10;46.20
66928;DHT22;59882;45.624;11.698;2022-08-23T10:54:16;28.20;45.00
66928;DHT22;59882;45.624;11.698;2022-08-23T10:56:43;28.20;44.50
66928;DHT22;59882;45.624;11.698;2022-08-23T10:59:12;28.20;45.10
66928;DHT22;59882;45.624;11.698;2022-08-23T11:04:53;28.40;46.30
66928;DHT22;59882;45.624;11.698;2022-08-23T11:07:27;28.40;45.90
66928;DHT22;59882;45.624;11.698;2022-08-23T11:12:58;28.50;45.90
66928;DHT22;59882;45.624;11.698;2022-08-23T11:18:06;28.70;45.80
66928;DHT22;59882;45.624;11.698;2022-08-23T11:32:03;28.90;44.10
66928;DHT22;59882;45.624;11.698;2022-08-23T11:34:47;28.90;42.30
66928;DHT22;59882;45.624;11.698;2022-08-23T12:01:46;29.80;41.00
66928;DHT22;59882;45.624;11.698;2022-08-23T12:04:36;29.90;41.70
66928;DHT22;59882;45.624;11.698;2022-08-23T12:07:04;29.90;41.00
66928;DHT22;59882;45.624;11.698;2022-08-23T12:12:37;30.00;41.20
66928;DHT22;59882;45.624;11.698;2022-08-23T12:15:07;30.00;41.00
66928;DHT22;59882;45.624;11.698;2022-08-23T12:20:10;30.10;40.40
66928;DHT22;59882;45.624;11.698;2022-08-23T12:25:23;30.30;41.60
66928;DHT22;59882;45.624;11.698;2022-08-23T12:27:56;30.40;42.00
66928;DHT22;59882;45.624;11.698;2022-08-23T12:30:24;30.50;40.30
66928;DHT22;59882;45.624;11.698;2022-08-23T12:39:01;30.70;42.00
66928;DHT22;59882;45.624;11.698;2022-08-23T12:41:47;30.90;42.50
66928;DHT22;59882;45.624;11.698;2022-08-23T12:44:19;31.00;42.70
66928;DHT22;59882;45.624;11.698;2022-08-23T12:46:46;31.30;42.70
66928;DHT22;59882;45.624;11.698;2022-08-23T12:49:57;31.60;41.60
66928;DHT22;59882;45.624;11.698;2022-08-23T12:52:30;32.40;40.50
66928;DHT22;59882;45.624;11.698;2022-08-23T12:54:56;34.00;37.60
66928;DHT22;59882;45.624;11.698;2022-08-23T12:57:33;35.90;36.00
66928;DHT22;59882;45.624;11.698;2022-08-23T13:00:19;37.70;31.70
66928;DHT22;59882;45.624;11.698;2022-08-23T13:02:56;39.20;29.10
66928;DHT22;59882;45.624;11.698;2022-08-23T13:05:35;40.40;27.40
66928;DHT22;59882;45.624;11.698;2022-08-23T13:08:05;41.50;26.50
66928;DHT22;59882;45.624;11.698;2022-08-23T13:10:32;42.10;24.90
66928;DHT22;59882;45.624;11.698;2022-08-23T13:12:58;42.90;24.20
66928;DHT22;59882;45.624;11.698;2022-08-23T13:15:54;43.50;23.90
66928;DHT22;59882;45.624;11.698;2022-08-23T13:18:43;44.20;23.80
66928;DHT22;59882;45.624;11.698;2022-08-23T13:23:53;45.50;22.30
66928;DHT22;59882;45.624;11.698;2022-08-23T13:26:45;45.90;22.90
66928;DHT22;59882;45.624;11.698;2022-08-23T13:37:15;45.90;21.00
66928;DHT22;59882;45.624;11.698;2022-08-23T13:39:48;45.80;20.80
66928;DHT22;59882;45.624;11.698;2022-08-23T13:42:24;45.90;22.00
66928;DHT22;59882;45.624;11.698;2022-08-23T13:44:50;46.00;21.20
66928;DHT22;59882;45.624;11.698;2022-08-23T13:47:24;46.00;21.40
66928;DHT22;59882;45.624;11.698;2022-08-23T13:49:51;45.50;21.90
66928;DHT22;59882;45.624;11.698;2022-08-23T13:52:17;45.60;21.90
66928;DHT22;59882;45.624;11.698;2022-08-23T13:54:43;45.60;21.80
66928;DHT22;59882;45.624;11.698;2022-08-23T13:57:14;45.50;21.20
66928;DHT22;59882;45.624;11.698;2022-08-23T13:59:50;45.50;22.00
66928;DHT22;59882;45.624;11.698;2022-08-23T14:02:18;45.60;21.60
66928;DHT22;59882;45.624;11.698;2022-08-23T14:04:44;45.60;21.40
66928;DHT22;59882;45.624;11.698;2022-08-23T14:07:10;45.60;21.40
66928;DHT22;59882;45.624;11.698;2022-08-23T14:09:36;45.70;22.00
66928;DHT22;59882;45.624;11.698;2022-08-23T14:12:10;45.60;21.20
66928;DHT22;59882;45.624;11.698;2022-08-23T14:14:37;45.60;20.70
66928;DHT22;59882;45.624;11.698;2022-08-23T14:17:03;45.60;21.00
66928;DHT22;59882;45.624;11.698;2022-08-23T14:19:29;45.60;21.10
66928;DHT22;59882;45.624;11.698;2022-08-23T14:21:57;45.50;21.70
66928;DHT22;59882;45.624;11.698;2022-08-23T14:24:22;45.60;21.30
66928;DHT22;59882;45.624;11.698;2022-08-23T14:26:48;45.50;21.30
66928;DHT22;59882;45.624;11.698;2022-08-23T14:29:13;45.50;20.70
66928;DHT22;59882;45.624;11.698;2022-08-23T14:31:39;45.20;20.70
66928;DHT22;59882;45.624;11.698;2022-08-23T14:34:05;45.20;21.20
66928;DHT22;59882;45.624;11.698;2022-08-23T14:36:30;45.20;20.90
66928;DHT22;59882;45.624;11.698;2022-08-23T14:38:56;45.00;21.40
66928;DHT22;59882;45.624;11.698;2022-08-23T14:41:25;45.00;22.10
66928;DHT22;59882;45.624;11.698;2022-08-23T14:43:51;45.20;22.40
66928;DHT22;59882;45.624;11.698;2022-08-23T14:46:21;45.30;21.60
66928;DHT22;59882;45.624;11.698;2022-08-23T14:48:47;45.50;20.70
66928;DHT22;59882;45.624;11.698;2022-08-23T14:51:23;45.80;20.50
66928;DHT22;59882;45.624;11.698;2022-08-23T14:53:50;45.90;20.40
66928;DHT22;59882;45.624;11.698;2022-08-23T14:56:16;45.70;19.70
66928;DHT22;59882;45.624;11.698;2022-08-23T14:58:42;45.50;20.10
66928;DHT22;59882;45.624;11.698;2022-08-23T15:01:10;45.50;20.40
66928;DHT22;59882;45.624;11.698;2022-08-23T15:03:36;45.60;20.70
66928;DHT22;59882;45.624;11.698;2022-08-23T15:06:07;46.00;19.80
66928;DHT22;59882;45.624;11.698;2022-08-23T15:08:33;45.80;20.10
66928;DHT22;59882;45.624;11.698;2022-08-23T15:24:09;45.60;20.90
66928;DHT22;59882;45.624;11.698;2022-08-23T15:26:34;45.00;20.70
66928;DHT22;59882;45.624;11.698;2022-08-23T15:29:00;45.20;20.20
66928;DHT22;59882;45.624;11.698;2022-08-23T15:31:26;45.20;20.20
66928;DHT22;59882;45.624;11.698;2022-08-23T15:33:52;44.90;20.80
66928;DHT22;59882;45.624;11.698;2022-08-23T15:36:18;44.70;20.60
66928;DHT22;59882;45.624;11.698;2022-08-23T15:38:46;44.50;21.00
66928;DHT22;59882;45.624;11.698;2022-08-23T15:41:13;44.30;21.30
66928;DHT22;59882;45.624;11.698;2022-08-23T15:43:39;44.10;21.20
66928;DHT22;59882;45.624;11.698;2022-08-23T15:46:17;44.00;21.40
66928;DHT22;59882;45.624;11.698;2022-08-23T15:48:48;43.90;21.20
66928;DHT22;59882;45.624;11.698;2022-08-23T15:51:16;43.70;20.90
66928;DHT22;59882;45.624;11.698;2022-08-23T15:53:43;43.70;21.40
66928;DHT22;59882;45.624;11.698;2022-08-23T15:56:14;43.50;21.90
66928;DHT22;59882;45.624;11.698;2022-08-23T15:58:41;43.40;22.40
66928;DHT22;59882;45.624;11.698;2022-08-23T16:01:07;43.20;23.40
66928;DHT22;59882;45.624;11.698;2022-08-23T16:03:35;43.00;23.70
66928;DHT22;59882;45.624;11.698;2022-08-23T16:06:02;42.90;23.90
66928;DHT22;59882;45.624;11.698;2022-08-23T16:08:31;43.00;23.10
66928;DHT22;59882;45.624;11.698;2022-08-23T16:10:58;42.80;23.20
66928;DHT22;59882;45.624;11.698;2022-08-23T16:13:24;42.50;23.80
66928;DHT22;59882;45.624;11.698;2022-08-23T16:15:50;42.50;23.50
66928;DHT22;59882;45.624;11.698;2022-08-23T16:18:16;42.10;24.30
66928;DHT22;59882;45.624;11.698;2022-08-23T16:20:43;42.00;24.20
66928;DHT22;59882;45.624;11.698;2022-08-23T16:23:09;41.70;25.00
66928;DHT22;59882;45.624;11.698;2022-08-23T16:25:36;41.60;24.70
66928;DHT22;59882;45.624;11.698;2022-08-23T16:28:03;41.40;25.30
66928;DHT22;59882;45.624;11.698;2022-08-23T16:30:29;41.20;25.30
66928;DHT22;59882;45.624;11.698;2022-08-23T16:32:55;41.00;25.90
66928;DHT22;59882;45.624;11.698;2022-08-23T16:35:21;40.80;26.10
66928;DHT22;59882;45.624;11.698;2022-08-23T16:37:47;40.60;26.20
66928;DHT22;59882;45.624;11.698;2022-08-23T16:40:13;40.40;26.10
66928;DHT22;59882;45.624;11.698;2022-08-23T16:42:39;40.20;26.00
66928;DHT22;59882;45.624;11.698;2022-08-23T16:45:06;39.90;26.50
66928;DHT22;59882;45.624;11.698;2022-08-23T16:47:37;39.60;26.50
66928;DHT22;59882;45.624;11.698;2022-08-23T16:50:04;39.30;27.10
66928;DHT22;59882;45.624;11.698;2022-08-23T16:52:30;38.90;27.50
66928;DHT22;59882;45.624;11.698;2022-08-23T16:54:55;38.60;27.60
66928;DHT22;59882;45.624;11.698;2022-08-23T16:57:21;38.20;28.00
66928;DHT22;59882;45.624;11.698;2022-08-23T16:59:47;37.90;28.30
66928;DHT22;59882;45.624;11.698;2022-08-23T17:02:32;37.60;28.30
66928;DHT22;59882;45.624;11.698;2022-08-23T17:04:58;37.40;29.20
66928;DHT22;59882;45.624;11.698;2022-08-23T17:07:24;37.20;29.30
66928;DHT22;59882;45.624;11.698;2022-08-23T17:09:50;37.00;29.80
66928;DHT22;59882;45.624;11.698;2022-08-23T17:12:17;36.60;30.40
66928;DHT22;59882;45.624;11.698;2022-08-23T17:14:44;36.20;31.30
66928;DHT22;59882;45.624;11.698;2022-08-23T17:17:11;35.80;31.90
66928;DHT22;59882;45.624;11.698;2022-08-23T17:19:37;35.30;32.30
66928;DHT22;59882;45.624;11.698;2022-08-23T17:22:03;35.00;32.70
66928;DHT22;59882;45.624;11.698;2022-08-23T17:24:29;34.60;33.90
66928;DHT22;59882;45.624;11.698;2022-08-23T17:26:54;34.30;34.20
66928;DHT22;59882;45.624;11.698;2022-08-23T17:29:20;34.00;34.70
66928;DHT22;59882;45.624;11.698;2022-08-23T17:31:46;33.80;34.40